In Rescue
 
Open Full Screen Window  High Contrast Mode
June 22, 2024 8:37 PM CDT
Weather Information
Wind Direction
  ---
Wind Speed
  00 kt (0 mph)
Wind Gust
  00 kt (0 mph)
Altimeter
29.81 in
Visibility
10 SM
Temperature
23° C
73° F
Dewpoint
16° C
61° F
Humidity
65%
Sky Condition
Scattered @ 6,500 ft
VFR

METAR KCKN 230137Z AUTO 00000KT 10SM SCT065 23/16 A2981 RMK AO2

FAA Disclaimer: The data displayed is for advisory purposes only and is not to be used for flight planning or operations.